Time;durP1;ratioP1;P1;durP2;ratioP2;P2;SDS_P1;SDS_P2;PMS_P1;PMS_P2;Temp;Humidity;BMP_temperature;BMP_pressure;BME280_temperature;BME280_humidity;BME280_pressure;Samples;Min_cycle;Max_cycle;Signal;HPM_P1;HPM_P2
2021/04/29 00:01:21;;;;;;;7.78;5.50;;;5.60;64.20;;;;;;5092672;28;20020;-67
2021/04/29 00:03:46;;;;;;;9.30;5.65;;;5.60;64.20;;;;;;5092520;28;20035;-66
2021/04/29 00:06:12;;;;;;;7.35;5.68;;;5.60;64.30;;;;;;5092662;28;20020;-66
2021/04/29 00:08:38;;;;;;;9.05;5.75;;;5.60;64.50;;;;;;5091648;28;20016;-66
2021/04/29 00:11:06;;;;;;;7.15;5.35;;;5.60;64.60;;;;;;5093529;28;20024;-66
2021/04/29 00:13:33;;;;;;;10.43;5.93;;;5.50;65.00;;;;;;5092152;28;20443;-66
2021/04/29 00:15:59;;;;;;;9.20;5.50;;;5.50;64.80;;;;;;5092452;28;20432;-66
2021/04/29 00:18:25;;;;;;;9.10;5.93;;;5.50;64.90;;;;;;5093368;28;20016;-68
2021/04/29 00:20:55;;;;;;;11.45;6.30;;;5.50;64.90;;;;;;5093751;28;20020;-66
2021/04/29 00:23:22;;;;;;;10.52;6.43;;;5.50;65.00;;;;;;5093434;28;20024;-67
2021/04/29 00:25:48;;;;;;;8.82;5.80;;;5.50;65.20;;;;;;5093268;28;20020;-66
2021/04/29 00:28:14;;;;;;;8.77;6.20;;;5.50;65.30;;;;;;5093673;28;20074;-66
2021/04/29 00:30:39;;;;;;;11.10;6.30;;;5.50;65.30;;;;;;5092689;28;20073;-66
2021/04/29 00:33:05;;;;;;;10.40;6.05;;;5.50;65.20;;;;;;5093712;28;20103;-67
2021/04/29 00:35:31;;;;;;;9.20;5.95;;;5.60;65.30;;;;;;5091671;28;20035;-67
2021/04/29 00:37:56;;;;;;;9.15;6.22;;;5.60;65.30;;;;;;5093542;28;20350;-67
2021/04/29 00:40:22;;;;;;;9.57;6.38;;;5.60;66.00;;;;;;5093429;28;20415;-67
2021/04/29 00:42:47;;;;;;;10.82;6.88;;;5.60;65.40;;;;;;5092611;28;20027;-66
2021/04/29 00:45:13;;;;;;;8.73;5.82;;;5.60;65.40;;;;;;5093263;28;20028;-66
2021/04/29 00:47:40;;;;;;;9.95;6.57;;;5.60;65.40;;;;;;5092909;28;20031;-66
2021/04/29 00:50:09;;;;;;;9.77;6.43;;;5.60;65.50;;;;;;5092896;28;20096;-67
2021/04/29 00:52:35;;;;;;;9.73;6.18;;;5.60;65.50;;;;;;5092601;28;20081;-66
2021/04/29 00:55:01;;;;;;;14.00;6.80;;;5.50;65.40;;;;;;5092871;28;20054;-67
2021/04/29 00:57:27;;;;;;;11.93;6.93;;;5.50;65.60;;;;;;5089328;28;20016;-67
2021/04/29 00:59:54;;;;;;;8.68;6.45;;;5.40;65.90;;;;;;5093106;28;20043;-66
2021/04/29 01:02:22;;;;;;;8.07;6.20;;;5.40;66.10;;;;;;5092724;28;20369;-66
2021/04/29 01:05:06;;;;;;;9.32;6.00;;;5.30;66.20;;;;;;5092320;28;20036;-67
2021/04/29 01:07:39;;;;;;;8.77;6.28;;;5.30;66.40;;;;;;5079023;28;20022;-66
2021/04/29 01:10:27;;;;;;;11.48;7.00;;;5.30;66.40;;;;;;5094615;28;20103;-67
2021/04/29 01:13:04;;;;;;;13.20;7.43;;;5.30;66.40;;;;;;5095541;28;20181;-66
2021/04/29 01:15:31;;;;;;;11.80;7.63;;;5.30;66.40;;;;;;5096397;28;20032;-66
2021/04/29 01:17:57;;;;;;;10.50;6.72;;;5.30;66.40;;;;;;5096973;28;20020;-66
2021/04/29 01:20:32;;;;;;;10.88;6.20;;;5.30;66.50;;;;;;5095310;28;20020;-66
2021/04/29 01:23:07;;;;;;;8.82;6.45;;;5.30;66.60;;;;;;5097314;28;20023;-66
2021/04/29 01:25:37;;;;;;;11.77;7.05;;;5.30;66.60;;;;;;5095075;28;20028;-66
2021/04/29 01:28:02;;;;;;;10.60;7.30;;;5.20;66.70;;;;;;5095554;28;20054;-67
2021/04/29 01:30:29;;;;;;;10.38;7.68;;;5.20;66.70;;;;;;5096405;28;20129;-67
2021/04/29 01:32:55;;;;;;;11.02;7.32;;;5.20;66.90;;;;;;5096581;28;20460;-66
2021/04/29 01:35:21;;;;;;;10.57;6.95;;;5.20;67.20;;;;;;5095471;28;20024;-66
2021/04/29 01:37:49;;;;;;;11.00;6.97;;;5.20;67.20;;;;;;5094977;28;20012;-66
2021/04/29 01:40:15;;;;;;;9.48;6.75;;;5.20;67.20;;;;;;5096541;28;20020;-66
2021/04/29 01:42:41;;;;;;;11.68;6.97;;;5.20;67.20;;;;;;5094260;28;20027;-67
2021/04/29 01:45:07;;;;;;;10.93;7.15;;;5.20;67.30;;;;;;5096432;28;20028;-66
2021/04/29 01:47:34;;;;;;;11.23;7.25;;;5.10;67.40;;;;;;5094968;28;20477;-69
2021/04/29 01:50:06;;;;;;;11.85;8.20;;;5.10;67.50;;;;;;5082404;28;20091;-67
2021/04/29 01:52:32;;;;;;;13.45;8.52;;;5.10;67.70;;;;;;5094652;28;20020;-66
2021/04/29 01:54:59;;;;;;;22.05;10.70;;;5.10;67.60;;;;;;5095935;28;20027;-66
2021/04/29 01:57:25;;;;;;;21.20;11.30;;;5.10;67.90;;;;;;5094892;28;20034;-66
2021/04/29 01:59:50;;;;;;;18.30;10.13;;;5.00;68.40;;;;;;5095805;28;20436;-66
2021/04/29 02:02:16;;;;;;;15.60;8.95;;;4.90;68.20;;;;;;5096008;28;20016;-66
2021/04/29 02:04:41;;;;;;;15.73;9.57;;;4.90;68.50;;;;;;5093630;28;20033;-67
2021/04/29 02:07:07;;;;;;;17.50;9.30;;;4.80;68.90;;;;;;5094718;28;20020;-67
2021/04/29 02:09:33;;;;;;;13.15;8.18;;;4.80;69.20;;;;;;5094756;28;20028;-67
2021/04/29 02:12:03;;;;;;;14.43;8.65;;;4.70;69.30;;;;;;5093944;28;20040;-66
2021/04/29 02:14:48;;;;;;;15.20;8.73;;;4.70;69.60;;;;;;5095563;28;20020;-67
2021/04/29 02:17:24;;;;;;;13.45;8.75;;;4.70;69.70;;;;;;5094268;28;20016;-66
2021/04/29 02:19:51;;;;;;;13.18;8.73;;;4.70;69.70;;;;;;5095835;28;20028;-66
2021/04/29 02:22:20;;;;;;;16.63;9.02;;;4.70;69.70;;;;;;5094574;28;20099;-66
2021/04/29 02:24:48;;;;;;;20.65;13.30;;;4.60;69.90;;;;;;5095189;28;20032;-66
2021/04/29 02:27:14;;;;;;;23.55;12.32;;;4.60;70.20;;;;;;5095362;28;20051;-67
2021/04/29 02:29:42;;;;;;;43.75;25.00;;;4.50;70.50;;;;;;5095606;28;20517;-66
2021/04/29 02:32:08;;;;;;;43.22;19.98;;;4.50;70.80;;;;;;5093937;28;20181;-66
2021/04/29 02:34:34;;;;;;;90.18;39.53;;;4.50;70.90;;;;;;5095067;28;20102;-66
2021/04/29 02:37:00;;;;;;;25.52;17.25;;;4.60;70.80;;;;;;5093837;28;20028;-68
2021/04/29 02:39:28;;;;;;;22.08;15.63;;;4.60;70.80;;;;;;5080118;28;20027;-66
2021/04/29 02:41:54;;;;;;;34.50;21.17;;;4.70;70.80;;;;;;5095441;28;20020;-66
2021/04/29 02:44:19;;;;;;;98.97;51.90;;;4.80;71.00;;;;;;5093843;28;20028;-66
2021/04/29 02:46:45;;;;;;;104.63;55.03;;;4.80;71.00;;;;;;5094813;28;20907;-67
2021/04/29 02:49:11;;;;;;;128.98;69.57;;;5.00;71.10;;;;;;5095018;28;20076;-67
2021/04/29 02:51:38;;;;;;;69.25;38.83;;;5.10;71.10;;;;;;5095051;28;20047;-66
2021/04/29 02:54:08;;;;;;;47.47;27.17;;;5.20;71.00;;;;;;5093540;28;20055;-67
2021/04/29 02:56:40;;;;;;;58.63;33.13;;;5.30;71.10;;;;;;5093444;28;20020;-70
2021/04/29 02:59:05;;;;;;;49.10;28.50;;;5.50;71.10;;;;;;5094090;28;20024;-69
2021/04/29 03:01:33;;;;;;;49.03;27.17;;;5.70;71.00;;;;;;5093418;28;20027;-67
2021/04/29 03:03:59;;;;;;;54.75;29.33;;;5.90;70.90;;;;;;5090999;28;20016;-66
2021/04/29 03:06:25;;;;;;;50.03;27.20;;;6.10;70.70;;;;;;5092585;28;20089;-69
2021/04/29 03:08:51;;;;;;;42.45;25.25;;;6.30;70.40;;;;;;5091795;28;20059;-67
2021/04/29 03:11:17;;;;;;;48.00;28.63;;;6.60;70.20;;;;;;5091902;28;20040;-67
2021/04/29 03:13:43;;;;;;;44.70;27.70;;;6.90;69.70;;;;;;5089430;28;20020;-67
2021/04/29 03:16:08;;;;;;;36.50;21.90;;;7.10;69.30;;;;;;5090140;28;20016;-67
2021/04/29 03:18:34;;;;;;;29.88;18.67;;;7.40;68.90;;;;;;5090861;28;20016;-67
2021/04/29 03:21:00;;;;;;;36.47;23.08;;;7.60;68.20;;;;;;5091901;28;20027;-67
2021/04/29 03:23:25;;;;;;;40.63;22.38;;;7.80;67.70;;;;;;5092958;28;20105;-67
2021/04/29 03:25:51;;;;;;;48.50;24.30;;;7.90;67.40;;;;;;5089095;28;20066;-68
2021/04/29 03:28:17;;;;;;;42.70;26.40;;;8.10;67.30;;;;;;5093225;28;20330;-67
2021/04/29 03:30:42;;;;;;;42.75;26.70;;;8.30;67.20;;;;;;5089765;28;20404;-68
2021/04/29 03:33:10;;;;;;;43.67;22.23;;;8.60;66.80;;;;;;5089090;28;20042;-68
2021/04/29 03:35:36;;;;;;;38.90;24.40;;;8.80;66.40;;;;;;5085604;28;20374;-68
2021/04/29 03:38:02;;;;;;;38.17;23.38;;;9.00;66.00;;;;;;5081980;28;20025;-69
2021/04/29 03:40:28;;;;;;;34.45;21.70;;;9.20;65.70;;;;;;5089012;28;20553;-68
2021/04/29 03:42:55;;;;;;;34.38;20.50;;;9.50;65.30;;;;;;5091937;28;20091;-67
2021/04/29 03:45:21;;;;;;;39.45;23.15;;;9.80;64.70;;;;;;5091224;28;20031;-68
2021/04/29 03:47:47;;;;;;;38.42;22.58;;;10.10;64.10;;;;;;5091188;28;20084;-66
2021/04/29 03:50:13;;;;;;;31.60;20.20;;;10.40;63.60;;;;;;5093012;28;20039;-67
2021/04/29 03:52:38;;;;;;;30.75;20.35;;;10.70;62.90;;;;;;5089134;28;20039;-66
2021/04/29 03:55:05;;;;;;;35.20;21.70;;;11.00;62.20;;;;;;5090613;28;20035;-66
2021/04/29 03:57:30;;;;;;;46.13;23.15;;;11.20;61.60;;;;;;5090872;28;20081;-67
2021/04/29 03:59:56;;;;;;;38.10;25.13;;;11.40;60.90;;;;;;5088405;28;20091;-66
2021/04/29 04:02:22;;;;;;;38.10;24.55;;;11.50;60.40;;;;;;5089242;28;20020;-66
2021/04/29 04:04:48;;;;;;;45.83;27.00;;;11.80;59.80;;;;;;5091997;28;20028;-70
2021/04/29 04:07:13;;;;;;;55.10;36.10;;;12.20;59.00;;;;;;5092634;28;20347;-70
2021/04/29 04:09:39;;;;;;;46.05;31.25;;;12.40;58.10;;;;;;5092016;28;20024;-69
2021/04/29 04:12:06;;;;;;;43.25;26.83;;;12.80;57.50;;;;;;5093173;28;20044;-69
2021/04/29 04:14:32;;;;;;;47.55;27.15;;;13.10;56.80;;;;;;5093101;28;20020;-69
2021/04/29 04:16:57;;;;;;;46.97;28.35;;;13.50;56.30;;;;;;5092993;28;20031;-69
2021/04/29 04:19:23;;;;;;;46.80;28.58;;;13.80;55.70;;;;;;5093432;28;20087;-69
2021/04/29 04:21:49;;;;;;;46.90;26.73;;;14.00;55.20;;;;;;5091928;28;20020;-69
2021/04/29 04:24:14;;;;;;;41.63;24.92;;;14.20;55.00;;;;;;5093748;28;20032;-69
2021/04/29 04:26:40;;;;;;;37.38;24.77;;;14.60;54.90;;;;;;5093138;28;20039;-70
2021/04/29 04:29:06;;;;;;;38.58;24.17;;;15.10;54.30;;;;;;5092640;28;20046;-67
2021/04/29 04:31:32;;;;;;;36.40;23.38;;;15.40;53.60;;;;;;5090587;28;20031;-67
2021/04/29 04:33:57;;;;;;;63.72;28.80;;;15.50;52.60;;;;;;5080110;28;20020;-67
2021/04/29 04:36:23;;;;;;;40.42;25.25;;;15.40;52.40;;;;;;5092198;28;20016;-66
2021/04/29 04:38:48;;;;;;;36.90;24.48;;;15.20;52.50;;;;;;5090875;28;20044;-68
2021/04/29 04:41:14;;;;;;;39.03;23.08;;;14.80;52.90;;;;;;5087818;28;20055;-68
2021/04/29 04:43:40;;;;;;;38.40;22.80;;;14.60;53.60;;;;;;5091394;28;20035;-68
2021/04/29 04:46:05;;;;;;;36.13;22.70;;;14.50;54.50;;;;;;5088692;28;20024;-65
2021/04/29 04:48:31;;;;;;;27.02;17.40;;;14.50;55.30;;;;;;5091073;28;20020;-68
2021/04/29 04:50:57;;;;;;;40.00;19.63;;;14.60;56.10;;;;;;5089419;28;20032;-65
2021/04/29 04:53:23;;;;;;;32.00;18.33;;;15.10;56.90;;;;;;5088295;28;20024;-68
2021/04/29 04:55:50;;;;;;;20.13;14.93;;;15.70;56.70;;;;;;5077970;28;20024;-66
2021/04/29 04:58:16;;;;;;;25.25;14.18;;;15.90;56.10;;;;;;5084615;28;20016;-67
2021/04/29 05:00:43;;;;;;;23.38;15.90;;;15.90;55.80;;;;;;5090091;28;20027;-70
2021/04/29 05:03:10;;;;;;;27.25;16.02;;;15.70;55.90;;;;;;5090888;28;20021;-70
2021/04/29 05:05:35;;;;;;;26.33;15.32;;;15.50;56.10;;;;;;5080985;28;20024;-70
2021/04/29 05:08:01;;;;;;;22.05;14.02;;;15.30;56.30;;;;;;5089002;28;20016;-71
2021/04/29 05:10:29;;;;;;;24.98;15.73;;;15.00;56.90;;;;;;5082062;28;20209;-71
2021/04/29 05:12:55;;;;;;;31.33;15.55;;;14.70;58.00;;;;;;5089978;28;20039;-70
2021/04/29 05:15:21;;;;;;;19.15;12.38;;;14.40;58.90;;;;;;5083078;28;20105;-72
2021/04/29 05:17:50;;;;;;;19.15;12.63;;;14.00;59.70;;;;;;5080300;28;20028;-68
2021/04/29 05:20:15;;;;;;;27.27;13.60;;;13.60;60.60;;;;;;5091520;28;20050;-69
2021/04/29 05:22:41;;;;;;;23.05;15.95;;;13.40;61.50;;;;;;5083320;28;20636;-69
2021/04/29 05:25:07;;;;;;;22.35;16.25;;;13.10;62.00;;;;;;5090900;28;20600;-69
2021/04/29 05:27:33;;;;;;;20.08;14.52;;;12.90;62.50;;;;;;5090354;28;20408;-70
2021/04/29 05:29:58;;;;;;;25.17;13.48;;;12.70;63.00;;;;;;5091327;28;20020;-69
2021/04/29 05:32:24;;;;;;;17.65;10.98;;;12.60;63.10;;;;;;5090012;28;20035;-68
2021/04/29 05:34:50;;;;;;;16.15;12.30;;;12.50;62.80;;;;;;5089363;28;20051;-68
2021/04/29 05:37:15;;;;;;;15.27;10.88;;;12.40;62.30;;;;;;5089810;28;20103;-72
2021/04/29 05:39:41;;;;;;;16.75;11.05;;;12.30;62.00;;;;;;5088177;28;20020;-67
2021/04/29 05:42:07;;;;;;;14.88;11.30;;;12.20;61.70;;;;;;5091983;28;20450;-67
2021/04/29 05:44:32;;;;;;;17.27;12.00;;;12.10;61.70;;;;;;5090973;28;20111;-68
2021/04/29 05:46:58;;;;;;;14.98;10.52;;;12.10;61.80;;;;;;5084649;28;20020;-67
2021/04/29 05:49:24;;;;;;;22.38;12.18;;;12.10;61.60;;;;;;5090495;28;20035;-67
2021/04/29 05:51:50;;;;;;;25.75;11.43;;;12.10;61.40;;;;;;5091552;28;20031;-67
2021/04/29 05:54:15;;;;;;;16.73;8.77;;;12.10;61.20;;;;;;5091493;28;20026;-67
2021/04/29 05:56:41;;;;;;;16.48;10.32;;;12.10;60.30;;;;;;5090972;28;20442;-68
2021/04/29 05:59:07;;;;;;;17.80;10.25;;;12.20;59.80;;;;;;5091340;28;20020;-67
2021/04/29 06:01:32;;;;;;;12.50;8.25;;;12.20;59.60;;;;;;5089432;28;20078;-66
2021/04/29 06:03:58;;;;;;;15.27;9.00;;;12.20;59.20;;;;;;5094806;28;20028;-67
2021/04/29 06:06:24;;;;;;;15.70;9.07;;;12.20;58.80;;;;;;5091321;28;20036;-71
2021/04/29 06:08:51;;;;;;;17.83;7.72;;;12.20;58.70;;;;;;5086647;28;20025;-67
2021/04/29 06:11:17;;;;;;;16.63;8.57;;;12.20;58.00;;;;;;5092394;28;20032;-67
2021/04/29 06:13:44;;;;;;;13.65;8.32;;;12.10;57.80;;;;;;5092728;28;20073;-67
2021/04/29 06:16:11;;;;;;;12.70;8.75;;;12.10;57.70;;;;;;5093726;28;20052;-67
2021/04/29 06:18:36;;;;;;;12.93;8.82;;;12.20;57.90;;;;;;5094547;28;20107;-69
2021/04/29 06:21:02;;;;;;;13.95;8.02;;;12.20;57.70;;;;;;5094489;28;20095;-70
2021/04/29 06:23:28;;;;;;;17.17;9.05;;;12.30;57.40;;;;;;5085855;28;20031;-67
2021/04/29 06:25:54;;;;;;;15.85;10.20;;;12.40;57.30;;;;;;5095466;28;20514;-70
2021/04/29 06:28:19;;;;;;;11.60;7.47;;;12.50;57.20;;;;;;5094071;28;20024;-67
2021/04/29 06:30:45;;;;;;;11.18;7.68;;;12.80;56.80;;;;;;5090325;28;20030;-68
2021/04/29 06:33:11;;;;;;;10.80;7.28;;;12.90;55.90;;;;;;5094275;28;20028;-65
2021/04/29 06:35:36;;;;;;;11.40;7.93;;;13.00;55.60;;;;;;5079194;28;20059;-68
2021/04/29 06:38:02;;;;;;;11.90;8.07;;;13.20;55.40;;;;;;5093377;28;20450;-69
2021/04/29 06:40:28;;;;;;;12.18;7.80;;;13.40;55.30;;;;;;5089191;28;20020;-68
2021/04/29 06:42:53;;;;;;;10.43;7.15;;;13.70;54.80;;;;;;5091486;28;20043;-69
2021/04/29 06:45:19;;;;;;;13.15;6.70;;;13.80;53.20;;;;;;5091034;28;20068;-68
2021/04/29 06:47:47;;;;;;;9.23;5.65;;;13.90;53.10;;;;;;5091792;28;20019;-68
2021/04/29 06:50:12;;;;;;;9.90;6.00;;;14.00;52.20;;;;;;5092445;28;20052;-69
2021/04/29 06:52:38;;;;;;;8.27;5.40;;;14.00;51.60;;;;;;5091767;28;20047;-69
2021/04/29 06:55:04;;;;;;;12.82;6.82;;;14.10;51.30;;;;;;5095285;28;20551;-68
2021/04/29 06:57:30;;;;;;;13.18;6.30;;;14.00;50.70;;;;;;5094026;28;20043;-68
2021/04/29 06:59:56;;;;;;;7.13;5.13;;;14.00;51.40;;;;;;5095463;28;20097;-68
2021/04/29 07:02:22;;;;;;;8.43;5.88;;;13.90;50.50;;;;;;5093658;28;20027;-68
2021/04/29 07:04:47;;;;;;;11.93;6.47;;;13.80;50.60;;;;;;5094495;28;20361;-68
2021/04/29 07:07:13;;;;;;;9.95;7.00;;;13.80;51.10;;;;;;5095404;28;20454;-68
2021/04/29 07:09:39;;;;;;;24.55;13.77;;;13.80;50.80;;;;;;5093933;28;20024;-68
2021/04/29 07:12:05;;;;;;;14.65;7.50;;;13.70;50.70;;;;;;5095142;28;20090;-68
2021/04/29 07:14:30;;;;;;;10.10;6.80;;;13.60;50.50;;;;;;5094952;28;20016;-67
2021/04/29 07:16:56;;;;;;;16.10;6.93;;;13.60;50.80;;;;;;5094951;28;20062;-68
2021/04/29 07:19:22;;;;;;;10.65;6.18;;;13.60;51.10;;;;;;5094960;28;20016;-68
2021/04/29 07:21:47;;;;;;;6.80;5.43;;;13.70;51.30;;;;;;5094856;28;20446;-67
2021/04/29 07:24:13;;;;;;;7.75;5.50;;;13.80;51.10;;;;;;5093463;28;20012;-67
2021/04/29 07:26:39;;;;;;;8.73;6.10;;;14.00;50.80;;;;;;5093370;28;20119;-68
2021/04/29 07:29:05;;;;;;;7.28;5.53;;;14.10;50.60;;;;;;5094466;28;20028;-67
2021/04/29 07:31:31;;;;;;;13.93;6.40;;;14.30;50.70;;;;;;5093524;28;20515;-67
2021/04/29 07:33:57;;;;;;;11.07;6.40;;;14.40;50.30;;;;;;5093242;28;20012;-67
2021/04/29 07:36:23;;;;;;;10.68;6.65;;;14.50;50.00;;;;;;5093535;28;20020;-67
2021/04/29 07:38:48;;;;;;;8.05;5.53;;;14.80;50.00;;;;;;5094014;28;20024;-68
2021/04/29 07:41:14;;;;;;;8.30;5.75;;;15.00;49.40;;;;;;5093364;28;20020;-69
2021/04/29 07:43:40;;;;;;;9.35;5.55;;;15.30;49.40;;;;;;5094631;28;20095;-68
2021/04/29 07:46:05;;;;;;;7.13;5.15;;;15.70;48.50;;;;;;5094096;28;20071;-67
2021/04/29 07:48:31;;;;;;;7.72;5.00;;;16.00;48.00;;;;;;5094200;28;20123;-68
2021/04/29 07:50:58;;;;;;;10.90;6.07;;;16.40;47.80;;;;;;5094097;28;20610;-67
2021/04/29 07:53:24;;;;;;;11.98;5.57;;;16.60;46.00;;;;;;5094332;28;20354;-67
2021/04/29 07:55:50;;;;;;;9.50;5.72;;;16.70;45.90;;;;;;5093915;28;20020;-68
2021/04/29 07:58:15;;;;;;;7.10;4.90;;;17.00;45.80;;;;;;5092999;28;20016;-67
2021/04/29 08:00:41;;;;;;;8.95;5.20;;;17.20;45.40;;;;;;5093160;28;20423;-67
2021/04/29 08:03:07;;;;;;;10.25;5.18;;;17.50;45.20;;;;;;5092710;28;20413;-67
2021/04/29 08:05:33;;;;;;;10.98;6.13;;;17.80;44.40;;;;;;5091230;28;20020;-68
2021/04/29 08:07:59;;;;;;;9.02;4.80;;;17.90;44.70;;;;;;5092391;28;20028;-67
2021/04/29 08:10:24;;;;;;;7.10;5.05;;;18.10;43.90;;;;;;5092012;28;20073;-68
2021/04/29 08:12:50;;;;;;;10.32;4.95;;;18.30;43.50;;;;;;5094150;28;20047;-67
2021/04/29 08:15:16;;;;;;;12.82;6.75;;;18.40;43.20;;;;;;5093850;28;20020;-68
2021/04/29 08:17:42;;;;;;;7.57;5.18;;;18.60;43.50;;;;;;5093848;28;20462;-68
2021/04/29 08:20:09;;;;;;;7.60;4.60;;;18.80;42.50;;;;;;5091677;28;20054;-68
2021/04/29 08:22:34;;;;;;;7.05;4.80;;;18.80;42.20;;;;;;5093781;28;20020;-67
2021/04/29 08:25:01;;;;;;;10.68;4.90;;;19.00;41.60;;;;;;5092234;28;20035;-67
2021/04/29 08:27:27;;;;;;;10.18;5.50;;;19.40;41.70;;;;;;5093690;28;20040;-67
2021/04/29 08:29:53;;;;;;;7.18;4.72;;;19.60;41.20;;;;;;5092600;28;20028;-67
2021/04/29 08:32:19;;;;;;;5.88;4.20;;;19.70;40.00;;;;;;5092082;28;20115;-67
2021/04/29 08:34:45;;;;;;;8.82;5.55;;;19.60;39.70;;;;;;5092162;28;20032;-67
2021/04/29 08:37:12;;;;;;;9.85;6.10;;;19.90;40.10;;;;;;5093354;28;20054;-67
2021/04/29 08:39:37;;;;;;;6.40;4.30;;;20.00;39.80;;;;;;5094030;28;20069;-67
2021/04/29 08:42:03;;;;;;;10.52;4.90;;;20.10;39.10;;;;;;5093748;28;20024;-67
2021/04/29 08:44:30;;;;;;;6.97;4.18;;;20.40;40.10;;;;;;5091512;28;20024;-68
2021/04/29 08:46:55;;;;;;;9.43;4.60;;;20.70;39.10;;;;;;5092471;28;20032;-67
2021/04/29 08:49:22;;;;;;;6.68;4.80;;;20.90;38.30;;;;;;5093351;28;20360;-67
2021/04/29 08:51:51;;;;;;;11.18;5.68;;;21.10;38.40;;;;;;5093651;28;20035;-68
2021/04/29 08:54:17;;;;;;;10.43;4.53;;;21.20;37.90;;;;;;5091824;28;20081;-67
2021/04/29 08:56:42;;;;;;;6.53;3.90;;;21.20;37.50;;;;;;5093186;28;20016;-67
2021/04/29 08:59:08;;;;;;;6.35;4.25;;;21.20;37.30;;;;;;5092144;28;20100;-68
2021/04/29 09:01:46;;;;;;;6.75;3.88;;;21.30;37.60;;;;;;5092035;28;20016;-67
2021/04/29 09:04:12;;;;;;;15.13;5.13;;;21.80;37.80;;;;;;5093134;28;20352;-68
2021/04/29 09:06:39;;;;;;;5.20;3.47;;;22.30;37.20;;;;;;5091433;28;20028;-68
2021/04/29 09:09:05;;;;;;;5.55;3.33;;;22.30;36.50;;;;;;5093136;28;20016;-68
2021/04/29 09:11:31;;;;;;;5.40;3.30;;;22.50;36.20;;;;;;5091837;28;20059;-68
2021/04/29 09:14:03;;;;;;;6.40;3.47;;;22.60;36.00;;;;;;5093395;28;20024;-68
2021/04/29 09:16:38;;;;;;;13.90;7.35;;;23.10;35.90;;;;;;5091804;28;20020;-68
2021/04/29 09:19:04;;;;;;;11.77;5.70;;;23.10;34.90;;;;;;5079530;28;20012;-68
2021/04/29 09:21:33;;;;;;;5.80;3.90;;;22.70;34.90;;;;;;5092038;28;20020;-68
2021/04/29 09:23:59;;;;;;;8.70;4.78;;;22.70;35.40;;;;;;5092980;28;20450;-68
2021/04/29 09:26:31;;;;;;;7.68;4.43;;;22.80;35.10;;;;;;5092861;28;20040;-69
2021/04/29 09:29:09;;;;;;;5.10;3.20;;;23.10;35.50;;;;;;5092624;28;20084;-68
2021/04/29 09:31:40;;;;;;;4.70;2.88;;;23.40;35.00;;;;;;5092648;28;20084;-68
2021/04/29 09:34:06;;;;;;;5.85;3.10;;;23.30;34.70;;;;;;5095684;28;20012;-68
2021/04/29 09:36:39;;;;;;;11.32;4.30;;;23.30;34.90;;;;;;5095516;28;20024;-67
2021/04/29 09:39:05;;;;;;;5.15;2.88;;;23.30;34.60;;;;;;5097079;28;20012;-67
2021/04/29 09:41:36;;;;;;;14.27;3.75;;;23.20;34.00;;;;;;5095525;28;20024;-67
2021/04/29 09:44:07;;;;;;;6.57;2.90;;;22.80;34.70;;;;;;5096904;28;20047;-67
2021/04/29 09:47:09;;;;;;;5.57;3.47;;;22.90;35.20;;;;;;5096583;28;20343;-67
2021/04/29 09:49:39;;;;;;;5.88;3.53;;;23.40;34.70;;;;;;5069983;28;20122;-68
2021/04/29 09:52:21;;;;;;;4.97;3.42;;;23.30;34.50;;;;;;5095246;28;20016;-68
2021/04/29 09:54:48;;;;;;;6.43;3.80;;;23.20;34.50;;;;;;5082637;28;20523;-67
2021/04/29 09:57:19;;;;;;;12.20;7.10;;;23.20;34.60;;;;;;5096680;28;20020;-68
2021/04/29 09:59:48;;;;;;;5.32;2.80;;;23.20;35.00;;;;;;5095070;28;20020;-67
2021/04/29 10:02:16;;;;;;;3.75;2.80;;;23.60;35.00;;;;;;5095128;28;20027;-67
2021/04/29 10:04:43;;;;;;;6.43;3.50;;;24.00;34.20;;;;;;5094393;28;20024;-68
2021/04/29 10:07:10;;;;;;;13.98;8.93;;;23.80;34.40;;;;;;5094938;28;20024;-67
2021/04/29 10:09:36;;;;;;;16.25;8.75;;;23.80;35.70;;;;;;5094939;28;20366;-67
2021/04/29 10:12:09;;;;;;;15.43;7.28;;;24.00;36.40;;;;;;5096407;28;20044;-68
2021/04/29 10:14:36;;;;;;;11.68;7.20;;;24.00;36.70;;;;;;5094847;28;20058;-68
2021/04/29 10:17:07;;;;;;;15.82;5.85;;;24.10;36.60;;;;;;5096033;28;20412;-68
2021/04/29 10:20:02;;;;;;;10.45;6.53;;;23.80;35.90;;;;;;5094805;28;20347;-67
2021/04/29 10:22:28;;;;;;;10.05;6.47;;;23.30;35.90;;;;;;5091742;28;20115;-67
2021/04/29 10:24:54;;;;;;;10.02;6.25;;;22.30;36.40;;;;;;5096066;28;20116;-67
2021/04/29 10:27:26;;;;;;;15.10;9.02;;;21.40;37.50;;;;;;5094572;28;20035;-68
2021/04/29 10:30:29;;;;;;;11.30;8.85;;;20.80;39.40;;;;;;5095787;28;20112;-67
2021/04/29 10:32:56;;;;;;;14.85;7.85;;;20.60;40.20;;;;;;5079497;28;20024;-67
2021/04/29 10:35:23;;;;;;;12.85;7.78;;;20.50;40.60;;;;;;5094323;28;20076;-67
2021/04/29 10:37:59;;;;;;;10.95;6.50;;;20.50;40.60;;;;;;5094457;28;20108;-67
2021/04/29 10:40:36;;;;;;;13.85;7.80;;;20.40;40.20;;;;;;5091745;28;20032;-70
2021/04/29 10:43:02;;;;;;;13.40;7.30;;;20.00;40.60;;;;;;5084459;28;20028;-69
2021/04/29 10:45:30;;;;;;;10.38;6.47;;;19.70;41.00;;;;;;5090952;28;20180;-69
2021/04/29 10:48:10;;;;;;;14.35;7.28;;;19.20;41.50;;;;;;5092271;28;20465;-67
2021/04/29 10:50:50;;;;;;;14.88;6.70;;;18.80;42.20;;;;;;5089772;28;20097;-70
2021/04/29 10:53:30;;;;;;;15.70;7.40;;;18.40;42.50;;;;;;5091545;28;20031;-68
2021/04/29 10:56:05;;;;;;;11.98;7.88;;;18.10;43.50;;;;;;5108984;28;20028;-69
2021/04/29 10:58:31;;;;;;;14.05;8.02;;;17.90;44.00;;;;;;5092641;28;20458;-69
2021/04/29 11:01:17;;;;;;;11.43;7.47;;;17.70;45.20;;;;;;5084791;28;20110;-69
2021/04/29 11:03:49;;;;;;;;;;;17.50;45.30;;;;;;5082951;28;20025;-69
2021/04/29 11:06:27;;;;;;;10.30;5.90;;;17.30;45.80;;;;;;5091951;28;20362;-69
2021/04/29 11:08:55;;;;;;;10.63;6.32;;;17.60;45.60;;;;;;5092543;28;20042;-69
2021/04/29 11:11:41;;;;;;;17.45;6.50;;;17.80;45.20;;;;;;5093495;28;20020;-69
2021/04/29 11:14:07;;;;;;;;;;;18.30;44.80;;;;;;5085785;28;20104;-69
2021/04/29 11:16:44;;;;;;;13.32;6.38;;;18.50;44.80;;;;;;5090565;28;19904;-69
2021/04/29 11:19:36;;;;;;;10.88;6.88;;;18.80;44.20;;;;;;5092370;28;20030;-69
2021/04/29 11:22:19;;;;;;;10.15;6.30;;;19.00;43.40;;;;;;5089537;28;20032;-69
2021/04/29 11:24:49;;;;;;;9.40;6.10;;;19.20;42.80;;;;;;5091882;28;20020;-69
2021/04/29 11:27:37;;;;;;;11.57;6.53;;;19.10;42.30;;;;;;5077629;28;20032;-69
2021/04/29 11:30:03;;;;;;;15.60;8.00;;;18.70;42.70;;;;;;5088336;28;20381;-69
2021/04/29 11:32:35;;;;;;;12.50;6.43;;;18.20;43.80;;;;;;5091469;28;20020;-69
2021/04/29 11:35:21;;;;;;;10.95;5.88;;;17.80;43.50;;;;;;5094157;28;20365;-69
2021/04/29 11:37:47;;;;;;;11.32;6.20;;;17.40;43.60;;;;;;5093377;28;20611;-68
2021/04/29 11:40:14;;;;;;;11.77;6.00;;;17.10;44.10;;;;;;5093654;28;20044;-69
2021/04/29 11:42:44;;;;;;;8.82;5.47;;;16.80;44.80;;;;;;5092224;28;20024;-68
2021/04/29 11:45:17;;;;;;;11.05;6.00;;;16.70;45.20;;;;;;5085537;28;20020;-68
2021/04/29 11:48:14;;;;;;;8.90;5.13;;;16.50;45.90;;;;;;5091706;28;20466;-68
2021/04/29 11:50:41;;;;;;;12.23;5.43;;;16.40;46.20;;;;;;5073315;28;20461;-69
2021/04/29 11:53:10;;;;;;;10.10;4.57;;;16.30;46.50;;;;;;5092334;28;20020;-70
2021/04/29 11:55:38;;;;;;;18.55;6.05;;;16.20;46.70;;;;;;5093227;28;20020;-71
2021/04/29 11:58:25;;;;;;;14.50;6.28;;;16.10;46.90;;;;;;5088354;28;20024;-69
2021/04/29 12:00:53;;;;;;;15.02;10.05;;;16.10;47.20;;;;;;5088995;28;20043;-69
2021/04/29 12:03:21;;;;;;;15.85;8.65;;;16.10;47.70;;;;;;5091844;28;20378;-69
2021/04/29 12:05:50;;;;;;;10.20;5.88;;;16.20;47.70;;;;;;5093311;28;20028;-69
2021/04/29 12:08:18;;;;;;;11.38;5.68;;;16.20;47.20;;;;;;5089918;28;20028;-70
2021/04/29 12:11:05;;;;;;;11.52;4.88;;;16.20;47.00;;;;;;5087107;28;20501;-69
2021/04/29 12:13:45;;;;;;;9.23;6.10;;;16.10;47.50;;;;;;5090282;28;20374;-69
2021/04/29 12:16:28;;;;;;;10.95;5.90;;;16.20;47.80;;;;;;5081206;28;20024;-69
2021/04/29 12:18:56;;;;;;;10.07;5.00;;;16.20;48.20;;;;;;5092297;28;20024;-69
2021/04/29 12:21:24;;;;;;;13.63;5.47;;;16.20;47.90;;;;;;5091166;28;20111;-65
2021/04/29 12:23:57;;;;;;;9.10;5.78;;;16.20;47.70;;;;;;5088999;28;20032;-71
2021/04/29 12:26:49;;;;;;;7.03;4.40;;;16.10;47.40;;;;;;5091831;28;20040;-70
2021/04/29 12:29:20;;;;;;;7.45;5.20;;;16.00;47.10;;;;;;5086603;28;20032;-70
2021/04/29 12:31:56;;;;;;;10.00;5.90;;;15.80;47.50;;;;;;5092302;28;20046;-70
2021/04/29 12:34:22;;;;;;;9.77;5.55;;;15.80;48.10;;;;;;5078324;28;20043;-69
2021/04/29 12:36:51;;;;;;;10.43;5.80;;;15.80;47.80;;;;;;5086382;28;20454;-69
2021/04/29 12:39:20;;;;;;;9.02;4.50;;;15.70;47.50;;;;;;5084913;28;20020;-68
2021/04/29 12:41:55;;;;;;;8.88;5.60;;;15.70;47.60;;;;;;5091614;28;20020;-68
2021/04/29 12:44:45;;;;;;;10.35;7.43;;;15.70;48.10;;;;;;5092075;28;20032;-68
2021/04/29 12:47:33;;;;;;;11.35;6.55;;;15.60;48.10;;;;;;5084128;28;20036;-68